Daytona Beach, FL

12:55 AM EST on December 08, 2016 (GMT -0500)
Daytona Beach International | | Change Station

Elev 33 ft 29.18 °N, 81.06 °W | Updated 2 minutes ago

Patches of Fog
Patches Fog Mist
60 °F
Feels Like 60 °F
N
8
Wind Variable Wind from NW

Today
High -- | Low -- °F
--% Chance of Precip.
Yesterday
High -- | Low -- °F
Precip. -- in
Pressure 30.10 in
Visibility 6.0 miles
Clouds Few 20000 ft
Dew Point 59 °F
Humidity 96%
Rainfall 0.00 in
Snow Depth Not available.
7:06 AM 5:26 PM
First Quarter, 60% visible
METAR KDAB 080553Z 31007KT 6SM BCFG BR FEW200 16/15 A3010 RMK AO2 SLP191 T01560150 10178 20144 58001
Pressure 30.10 in
Visibility 6.0 miles
Clouds Few 20000 ft
Dew Point 59 °F
Humidity 96%
Rainfall 0.00 in
Snow Depth Not available.
7:06 AM 5:26 PM
First Quarter, 60% visible
METAR KDAB 080553Z 31007KT 6SM BCFG BR FEW200 16/15 A3010 RMK AO2 SLP191 T01560150 10178 20144 58001

10-Day Weather Forecast

Almanac

Astronomy

Dec. 08, 2016 Rise Set
Actual Time
Civil Twilight
Nautical Twilight
Astronomical Twilight
Moon
Length of Visible Light
Length of Day
Tomorrow will be .
, % of the Moon is Illuminated

Today's Extremes

State Highs State Lows

Community

WunderPhotos

Upload Photos

1,956,259 photos uploaded!

WunderBlog® & News

Nearby

Air Quality

  Air Quality AQ Index Pollutant
Not available.

Snow Depth

Station Depth Elevation

Earthquake Activity

City Distance Mag. Time & Date
Minimum magnitude displayed is 2.5.

Coastal Water Temperatures

Place Temperature

Stations

Nearby Weather Stations

Station Location Temp. Windchill Dew Point Humidity Wind Precip. Elev Updated Type
                   

Watches & Warnings

There are currently no watches in effect.